sensor_id;sensor_type;location;lat;lon;timestamp;pressure;altitude;pressure_sealevel;temperature;humidity
71970;BME280;59838;52.152;5.436;2024-03-02T00:00:27;99838.44;;;8.09;90.30
71970;BME280;59838;52.152;5.436;2024-03-02T00:02:53;99833.88;;;8.11;90.66
71970;BME280;59838;52.152;5.436;2024-03-02T00:05:21;99840.66;;;8.12;90.49
71970;BME280;59838;52.152;5.436;2024-03-02T00:07:56;99843.44;;;8.11;90.60
71970;BME280;59838;52.152;5.436;2024-03-02T00:10:41;99831.72;;;8.15;90.19
71970;BME280;59838;52.152;5.436;2024-03-02T00:13:08;99842.28;;;8.13;90.60
71970;BME280;59838;52.152;5.436;2024-03-02T00:15:51;99843.84;;;8.14;90.87
71970;BME280;59838;52.152;5.436;2024-03-02T00:18:20;99850.63;;;8.15;91.13
71970;BME280;59838;52.152;5.436;2024-03-02T00:20:47;99862.59;;;8.16;91.00
71970;BME280;59838;52.152;5.436;2024-03-02T00:23:15;99853.81;;;8.17;91.13
71970;BME280;59838;52.152;5.436;2024-03-02T00:28:30;99868.56;;;8.17;91.91
71970;BME280;59838;52.152;5.436;2024-03-02T00:31:11;99881.50;;;8.17;91.90
71970;BME280;59838;52.152;5.436;2024-03-02T00:33:42;99885.06;;;8.16;92.12
71970;BME280;59838;52.152;5.436;2024-03-02T00:36:11;99899.78;;;8.15;92.48
71970;BME280;59838;52.152;5.436;2024-03-02T00:38:50;99911.75;;;8.16;92.37
71970;BME280;59838;52.152;5.436;2024-03-02T00:41:25;99907.53;;;8.15;92.75
71970;BME280;59838;52.152;5.436;2024-03-02T00:43:58;99922.09;;;8.16;92.41
71970;BME280;59838;52.152;5.436;2024-03-02T00:46:27;99936.84;;;8.22;92.30
71970;BME280;59838;52.152;5.436;2024-03-02T00:48:54;99948.44;;;8.27;92.65
71970;BME280;59838;52.152;5.436;2024-03-02T00:51:24;99941.63;;;8.26;93.25
71970;BME280;59838;52.152;5.436;2024-03-02T00:53:52;99938.03;;;8.20;93.73
71970;BME280;59838;52.152;5.436;2024-03-02T00:56:23;99942.16;;;8.14;94.27
71970;BME280;59838;52.152;5.436;2024-03-02T00:58:50;99948.72;;;8.10;94.88
71970;BME280;59838;52.152;5.436;2024-03-02T01:01:17;99939.91;;;8.04;95.85
71970;BME280;59838;52.152;5.436;2024-03-02T01:03:46;99953.75;;;7.97;97.23
71970;BME280;59838;52.152;5.436;2024-03-02T01:06:12;99962.28;;;7.91;98.11
71970;BME280;59838;52.152;5.436;2024-03-02T01:08:39;99960.63;;;7.83;99.45
71970;BME280;59838;52.152;5.436;2024-03-02T01:11:06;99956.00;;;7.78;99.81
71970;BME280;59838;52.152;5.436;2024-03-02T01:13:33;99957.34;;;7.74;100.00
71970;BME280;59838;52.152;5.436;2024-03-02T01:16:00;99954.34;;;7.71;100.00
71970;BME280;59838;52.152;5.436;2024-03-02T01:18:27;99968.63;;;7.66;100.00
71970;BME280;59838;52.152;5.436;2024-03-02T01:20:54;99964.00;;;7.62;100.00
71970;BME280;59838;52.152;5.436;2024-03-02T01:23:24;99957.97;;;7.55;100.00
71970;BME280;59838;52.152;5.436;2024-03-02T01:25:51;99946.78;;;7.47;100.00
71970;BME280;59838;52.152;5.436;2024-03-02T01:28:18;99964.97;;;7.39;100.00
71970;BME280;59838;52.152;5.436;2024-03-02T01:30:45;99975.06;;;7.34;100.00
71970;BME280;59838;52.152;5.436;2024-03-02T01:33:11;99972.84;;;7.31;100.00
71970;BME280;59838;52.152;5.436;2024-03-02T01:35:38;99968.22;;;7.26;100.00
71970;BME280;59838;52.152;5.436;2024-03-02T01:38:05;99970.19;;;7.24;100.00
71970;BME280;59838;52.152;5.436;2024-03-02T01:40:35;99970.56;;;7.21;100.00
71970;BME280;59838;52.152;5.436;2024-03-02T01:43:03;99967.53;;;7.18;100.00
71970;BME280;59838;52.152;5.436;2024-03-02T01:45:30;99964.31;;;7.16;100.00
71970;BME280;59838;52.152;5.436;2024-03-02T01:47:57;99974.03;;;7.13;100.00
71970;BME280;59838;52.152;5.436;2024-03-02T01:50:25;99974.38;;;7.10;100.00
71970;BME280;59838;52.152;5.436;2024-03-02T01:52:52;99973.78;;;7.08;100.00
71970;BME280;59838;52.152;5.436;2024-03-02T01:55:19;99979.91;;;7.07;100.00
71970;BME280;59838;52.152;5.436;2024-03-02T01:57:46;99974.31;;;7.04;100.00
71970;BME280;59838;52.152;5.436;2024-03-02T02:00:14;99968.53;;;7.02;100.00
71970;BME280;59838;52.152;5.436;2024-03-02T02:02:41;99977.25;;;7.01;100.00
71970;BME280;59838;52.152;5.436;2024-03-02T02:05:08;99968.88;;;6.99;100.00
71970;BME280;59838;52.152;5.436;2024-03-02T02:07:35;99968.28;;;6.97;100.00
71970;BME280;59838;52.152;5.436;2024-03-02T02:10:03;99960.88;;;6.93;100.00
71970;BME280;59838;52.152;5.436;2024-03-02T02:12:29;99965.41;;;6.91;100.00
71970;BME280;59838;52.152;5.436;2024-03-02T02:14:56;99975.13;;;6.89;100.00
71970;BME280;59838;52.152;5.436;2024-03-02T02:17:24;99980.63;;;6.86;100.00
71970;BME280;59838;52.152;5.436;2024-03-02T02:19:50;99988.56;;;6.85;100.00
71970;BME280;59838;52.152;5.436;2024-03-02T02:22:17;99975.84;;;6.83;100.00
71970;BME280;59838;52.152;5.436;2024-03-02T02:24:43;99972.81;;;6.80;100.00
71970;BME280;59838;52.152;5.436;2024-03-02T02:27:10;99974.78;;;6.77;100.00
71970;BME280;59838;52.152;5.436;2024-03-02T02:29:36;99961.59;;;6.72;100.00
71970;BME280;59838;52.152;5.436;2024-03-02T02:32:03;99958.56;;;6.69;100.00
71970;BME280;59838;52.152;5.436;2024-03-02T02:34:29;99968.81;;;6.62;100.00
71970;BME280;59838;52.152;5.436;2024-03-02T02:36:56;99966.75;;;6.57;100.00
71970;BME280;59838;52.152;5.436;2024-03-02T02:39:23;99966.94;;;6.56;100.00
71970;BME280;59838;52.152;5.436;2024-03-02T02:41:50;99974.22;;;6.52;100.00
71970;BME280;59838;52.152;5.436;2024-03-02T02:44:16;99974.56;;;6.49;100.00
71970;BME280;59838;52.152;5.436;2024-03-02T02:46:42;99987.66;;;6.48;100.00
71970;BME280;59838;52.152;5.436;2024-03-02T02:49:09;99980.91;;;6.47;100.00
71970;BME280;59838;52.152;5.436;2024-03-02T02:51:35;99979.66;;;6.43;100.00
71970;BME280;59838;52.152;5.436;2024-03-02T02:54:02;99976.44;;;6.40;100.00
71970;BME280;59838;52.152;5.436;2024-03-02T02:56:29;99988.56;;;6.40;100.00
71970;BME280;59838;52.152;5.436;2024-03-02T02:58:55;99982.13;;;6.36;100.00
71970;BME280;59838;52.152;5.436;2024-03-02T03:01:22;99996.19;;;6.33;100.00
71970;BME280;59838;52.152;5.436;2024-03-02T03:03:48;99994.59;;;6.32;100.00
71970;BME280;59838;52.152;5.436;2024-03-02T03:06:15;99996.72;;;6.29;100.00
71970;BME280;59838;52.152;5.436;2024-03-02T03:08:42;100007.22;;;6.27;100.00
71970;BME280;59838;52.152;5.436;2024-03-02T03:11:08;99985.75;;;6.27;100.00
71970;BME280;59838;52.152;5.436;2024-03-02T03:13:35;99990.13;;;6.26;100.00
71970;BME280;59838;52.152;5.436;2024-03-02T03:16:01;99995.63;;;6.23;100.00
71970;BME280;59838;52.152;5.436;2024-03-02T03:18:28;99982.09;;;6.21;100.00
71970;BME280;59838;52.152;5.436;2024-03-02T03:20:54;99988.22;;;6.20;100.00
71970;BME280;59838;52.152;5.436;2024-03-02T03:23:21;99991.81;;;6.19;100.00
71970;BME280;59838;52.152;5.436;2024-03-02T03:25:47;100007.44;;;6.17;100.00
71970;BME280;59838;52.152;5.436;2024-03-02T03:28:14;100002.63;;;6.14;100.00
71970;BME280;59838;52.152;5.436;2024-03-02T03:30:40;100000.56;;;6.10;100.00
71970;BME280;59838;52.152;5.436;2024-03-02T03:33:07;100008.66;;;6.07;100.00
71970;BME280;59838;52.152;5.436;2024-03-02T03:35:34;100009.00;;;6.03;100.00
71970;BME280;59838;52.152;5.436;2024-03-02T03:38:01;100006.59;;;6.02;100.00
71970;BME280;59838;52.152;5.436;2024-03-02T03:40:27;100004.53;;;5.97;100.00
71970;BME280;59838;52.152;5.436;2024-03-02T03:42:54;100010.81;;;5.95;100.00
71970;BME280;59838;52.152;5.436;2024-03-02T03:45:22;100011.16;;;5.92;100.00
71970;BME280;59838;52.152;5.436;2024-03-02T03:47:48;100009.53;;;5.91;100.00
71970;BME280;59838;52.152;5.436;2024-03-02T03:50:15;100007.13;;;5.89;100.00
71970;BME280;59838;52.152;5.436;2024-03-02T03:52:42;100020.84;;;5.90;100.00
71970;BME280;59838;52.152;5.436;2024-03-02T03:55:08;100020.47;;;5.93;100.00
71970;BME280;59838;52.152;5.436;2024-03-02T03:57:35;100024.50;;;5.95;100.00
71970;BME280;59838;52.152;5.436;2024-03-02T04:00:02;100025.16;;;5.97;100.00
71970;BME280;59838;52.152;5.436;2024-03-02T04:02:30;100018.06;;;5.99;100.00
71970;BME280;59838;52.152;5.436;2024-03-02T04:04:56;100018.06;;;5.99;100.00
71970;BME280;59838;52.152;5.436;2024-03-02T04:07:22;100011.28;;;5.98;100.00
71970;BME280;59838;52.152;5.436;2024-03-02T04:09:49;100025.63;;;6.01;100.00
71970;BME280;59838;52.152;5.436;2024-03-02T04:12:15;100018.69;;;6.01;100.00
71970;BME280;59838;52.152;5.436;2024-03-02T04:14:42;100027.03;;;6.03;100.00
71970;BME280;59838;52.152;5.436;2024-03-02T04:17:09;100024.28;;;6.05;100.00
71970;BME280;59838;52.152;5.436;2024-03-02T04:19:36;100031.53;;;6.10;100.00
71970;BME280;59838;52.152;5.436;2024-03-02T04:22:02;100025.56;;;6.09;100.00
71970;BME280;59838;52.152;5.436;2024-03-02T04:24:43;100034.28;;;6.08;100.00
71970;BME280;59838;52.152;5.436;2024-03-02T04:27:10;100041.03;;;6.09;100.00
71970;BME280;59838;52.152;5.436;2024-03-02T04:29:36;100035.72;;;6.11;100.00
71970;BME280;59838;52.152;5.436;2024-03-02T04:32:03;100038.28;;;6.11;100.00
71970;BME280;59838;52.152;5.436;2024-03-02T04:34:29;100039.88;;;6.12;100.00
71970;BME280;59838;52.152;5.436;2024-03-02T04:36:56;100039.88;;;6.12;100.00
71970;BME280;59838;52.152;5.436;2024-03-02T04:39:23;100042.13;;;6.15;100.00
71970;BME280;59838;52.152;5.436;2024-03-02T04:41:51;100044.69;;;6.15;100.00
71970;BME280;59838;52.152;5.436;2024-03-02T04:44:17;100048.88;;;6.16;100.00
71970;BME280;59838;52.152;5.436;2024-03-02T04:46:44;100051.63;;;6.14;100.00
71970;BME280;59838;52.152;5.436;2024-03-02T04:49:10;100052.25;;;6.16;100.00
71970;BME280;59838;52.152;5.436;2024-03-02T04:51:37;100056.78;;;6.14;100.00
71970;BME280;59838;52.152;5.436;2024-03-02T04:54:04;100058.56;;;6.14;100.00
71970;BME280;59838;52.152;5.436;2024-03-02T04:56:30;100063.72;;;6.14;100.00
71970;BME280;59838;52.152;5.436;2024-03-02T04:58:57;100056.78;;;6.14;100.00
71970;BME280;59838;52.152;5.436;2024-03-02T05:01:24;100074.84;;;6.14;100.00
71970;BME280;59838;52.152;5.436;2024-03-02T05:03:51;100067.09;;;6.14;100.00
71970;BME280;59838;52.152;5.436;2024-03-02T05:06:17;100062.75;;;6.15;100.00
71970;BME280;59838;52.152;5.436;2024-03-02T05:08:44;100066.50;;;6.12;100.00
71970;BME280;59838;52.152;5.436;2024-03-02T05:11:11;100069.25;;;6.11;100.00
71970;BME280;59838;52.152;5.436;2024-03-02T05:13:56;100066.81;;;6.09;100.00
71970;BME280;59838;52.152;5.436;2024-03-02T05:16:22;100076.97;;;6.11;100.00
71970;BME280;59838;52.152;5.436;2024-03-02T05:18:49;100069.25;;;6.11;100.00
71970;BME280;59838;52.152;5.436;2024-03-02T05:21:16;100075.19;;;6.11;100.00
71970;BME280;59838;52.152;5.436;2024-03-02T05:23:42;100074.22;;;6.12;100.00
71970;BME280;59838;52.152;5.436;2024-03-02T05:26:09;100076.59;;;6.14;100.00
71970;BME280;59838;52.152;5.436;2024-03-02T05:28:39;100076.81;;;6.12;100.00
71970;BME280;59838;52.152;5.436;2024-03-02T05:31:05;100074.03;;;6.14;100.00
71970;BME280;59838;52.152;5.436;2024-03-02T05:33:31;100067.28;;;6.13;100.00
71970;BME280;59838;52.152;5.436;2024-03-02T05:35:59;100080.34;;;6.11;100.00
71970;BME280;59838;52.152;5.436;2024-03-02T05:38:28;100075.81;;;6.13;100.00
71970;BME280;59838;52.152;5.436;2024-03-02T05:40:54;100081.75;;;6.14;100.00
71970;BME280;59838;52.152;5.436;2024-03-02T05:43:21;100081.59;;;6.15;100.00
71970;BME280;59838;52.152;5.436;2024-03-02T05:45:47;100066.50;;;6.12;100.00
71970;BME280;59838;52.152;5.436;2024-03-02T05:48:13;100080.84;;;6.07;100.00
71970;BME280;59838;52.152;5.436;2024-03-02T05:50:40;100080.13;;;5.98;100.00
71970;BME280;59838;52.152;5.436;2024-03-02T05:53:06;100072.75;;;5.86;100.00
71970;BME280;59838;52.152;5.436;2024-03-02T05:55:34;100074.22;;;5.81;100.00
71970;BME280;59838;52.152;5.436;2024-03-02T05:58:01;100085.31;;;5.81;100.00
71970;BME280;59838;52.152;5.436;2024-03-02T06:00:33;100092.53;;;5.86;100.00
71970;BME280;59838;52.152;5.436;2024-03-02T06:03:00;100090.63;;;5.88;100.00
71970;BME280;59838;52.152;5.436;2024-03-02T06:05:26;100096.56;;;5.89;100.00
71970;BME280;59838;52.152;5.436;2024-03-02T06:07:53;100098.19;;;5.90;100.00
71970;BME280;59838;52.152;5.436;2024-03-02T06:10:19;100101.72;;;5.89;100.00
71970;BME280;59838;52.152;5.436;2024-03-02T06:12:47;100105.25;;;5.88;100.00
71970;BME280;59838;52.152;5.436;2024-03-02T06:15:13;100106.41;;;5.85;100.00
71970;BME280;59838;52.152;5.436;2024-03-02T06:17:40;100106.75;;;5.82;100.00
71970;BME280;59838;52.152;5.436;2024-03-02T06:20:07;100107.09;;;5.79;100.00
71970;BME280;59838;52.152;5.436;2024-03-02T06:22:35;100110.00;;;5.76;100.00
71970;BME280;59838;52.152;5.436;2024-03-02T06:25:01;100115.00;;;5.77;100.00
71970;BME280;59838;52.152;5.436;2024-03-02T06:27:28;100119.34;;;5.77;100.00
71970;BME280;59838;52.152;5.436;2024-03-02T06:29:54;100116.94;;;5.75;100.00
71970;BME280;59838;52.152;5.436;2024-03-02T06:32:21;100130.63;;;5.76;100.00
71970;BME280;59838;52.152;5.436;2024-03-02T06:34:47;100123.84;;;5.75;100.00
71970;BME280;59838;52.152;5.436;2024-03-02T06:37:14;100129.50;;;5.78;100.00
71970;BME280;59838;52.152;5.436;2024-03-02T06:39:43;100128.97;;;5.83;100.00
71970;BME280;59838;52.152;5.436;2024-03-02T06:42:09;100139.88;;;5.93;100.00
71970;BME280;59838;52.152;5.436;2024-03-02T06:44:36;100135.91;;;6.22;100.00
71970;BME280;59838;52.152;5.436;2024-03-02T06:47:02;100135.53;;;6.25;100.00
71970;BME280;59838;52.152;5.436;2024-03-02T06:49:29;100137.81;;;6.20;100.00
71970;BME280;59838;52.152;5.436;2024-03-02T06:51:55;100134.44;;;6.19;100.00
71970;BME280;59838;52.152;5.436;2024-03-02T06:54:22;100128.50;;;6.19;100.00
71970;BME280;59838;52.152;5.436;2024-03-02T06:56:48;100129.13;;;6.44;100.00
71970;BME280;59838;52.152;5.436;2024-03-02T06:59:15;100132.31;;;6.46;100.00
71970;BME280;59838;52.152;5.436;2024-03-02T07:01:41;100128.28;;;7.64;100.00
71970;BME280;59838;52.152;5.436;2024-03-02T07:04:09;100123.91;;;8.59;100.00
71970;BME280;59838;52.152;5.436;2024-03-02T07:06:36;100120.69;;;9.49;98.15
71970;BME280;59838;52.152;5.436;2024-03-02T07:09:03;100116.53;;;10.16;90.61
71970;BME280;59838;52.152;5.436;2024-03-02T07:11:29;100118.97;;;10.78;85.76
71970;BME280;59838;52.152;5.436;2024-03-02T07:13:56;100118.44;;;11.48;81.89
71970;BME280;59838;52.152;5.436;2024-03-02T07:16:22;100116.91;;;12.17;77.70
71970;BME280;59838;52.152;5.436;2024-03-02T07:18:56;100112.03;;;12.28;73.79
71970;BME280;59838;52.152;5.436;2024-03-02T07:21:23;100121.94;;;12.44;71.84
71970;BME280;59838;52.152;5.436;2024-03-02T07:23:50;100116.44;;;13.21;69.91
71970;BME280;59838;52.152;5.436;2024-03-02T07:26:17;100118.13;;;13.83;66.56
71970;BME280;59838;52.152;5.436;2024-03-02T07:28:48;100117.91;;;14.26;63.62
71970;BME280;59838;52.152;5.436;2024-03-02T07:31:15;100117.81;;;14.33;61.30
71970;BME280;59838;52.152;5.436;2024-03-02T07:33:44;100125.19;;;14.36;60.99
71970;BME280;59838;52.152;5.436;2024-03-02T07:36:10;100130.91;;;14.45;60.64
71970;BME280;59838;52.152;5.436;2024-03-02T07:38:37;100135.84;;;15.01;58.66
71970;BME280;59838;52.152;5.436;2024-03-02T07:41:04;100137.53;;;15.18;58.10
71970;BME280;59838;52.152;5.436;2024-03-02T07:43:30;100136.09;;;15.51;56.45
71970;BME280;59838;52.152;5.436;2024-03-02T07:46:00;100139.63;;;15.57;56.08
71970;BME280;59838;52.152;5.436;2024-03-02T07:48:27;100137.50;;;15.71;54.98
71970;BME280;59838;52.152;5.436;2024-03-02T07:50:53;100139.34;;;15.06;56.59
71970;BME280;59838;52.152;5.436;2024-03-02T07:53:20;100148.16;;;13.92;58.40
71970;BME280;59838;52.152;5.436;2024-03-02T07:55:46;100152.44;;;13.12;61.21
71970;BME280;59838;52.152;5.436;2024-03-02T07:58:13;100158.56;;;12.17;64.08
71970;BME280;59838;52.152;5.436;2024-03-02T08:00:39;100152.13;;;11.81;67.85
71970;BME280;59838;52.152;5.436;2024-03-02T08:03:07;100161.97;;;11.66;68.88
71970;BME280;59838;52.152;5.436;2024-03-02T08:05:36;100164.34;;;10.89;71.67
71970;BME280;59838;52.152;5.436;2024-03-02T08:08:02;100170.84;;;10.31;74.57
71970;BME280;59838;52.152;5.436;2024-03-02T08:10:29;100174.31;;;9.83;76.43
71970;BME280;59838;52.152;5.436;2024-03-02T08:12:55;100178.91;;;9.40;78.82
71970;BME280;59838;52.152;5.436;2024-03-02T08:15:22;100181.97;;;9.22;80.31
71970;BME280;59838;52.152;5.436;2024-03-02T08:17:48;100183.06;;;9.06;81.52
71970;BME280;59838;52.152;5.436;2024-03-02T08:20:16;100175.16;;;8.92;83.15
71970;BME280;59838;52.152;5.436;2024-03-02T08:22:42;100182.28;;;8.84;84.71
71970;BME280;59838;52.152;5.436;2024-03-02T08:25:09;100179.44;;;8.78;85.37
71970;BME280;59838;52.152;5.436;2024-03-02T08:27:36;100174.81;;;8.74;86.19
71970;BME280;59838;52.152;5.436;2024-03-02T08:30:03;100172.47;;;8.79;86.50
71970;BME280;59838;52.152;5.436;2024-03-02T08:32:33;100167.78;;;8.89;86.74
71970;BME280;59838;52.152;5.436;2024-03-02T08:34:59;100178.63;;;9.00;87.21
71970;BME280;59838;52.152;5.436;2024-03-02T08:37:26;100172.59;;;9.21;86.73
71970;BME280;59838;52.152;5.436;2024-03-02T08:39:53;100181.78;;;9.23;86.57
71970;BME280;59838;52.152;5.436;2024-03-02T08:42:19;100174.06;;;9.30;87.09
71970;BME280;59838;52.152;5.436;2024-03-02T08:44:46;100174.84;;;9.30;86.39
71970;BME280;59838;52.152;5.436;2024-03-02T08:47:13;100183.97;;;9.26;87.47
71970;BME280;59838;52.152;5.436;2024-03-02T08:49:39;100185.81;;;9.32;87.31
71970;BME280;59838;52.152;5.436;2024-03-02T08:52:06;100179.63;;;9.27;87.99
71970;BME280;59838;52.152;5.436;2024-03-02T08:54:32;100177.44;;;9.30;87.47
71970;BME280;59838;52.152;5.436;2024-03-02T08:57:02;100173.47;;;9.35;88.19
71970;BME280;59838;52.152;5.436;2024-03-02T08:59:28;100172.47;;;9.36;87.97
71970;BME280;59838;52.152;5.436;2024-03-02T09:01:55;100180.22;;;9.29;86.49
71970;BME280;59838;52.152;5.436;2024-03-02T09:04:21;100183.56;;;9.23;86.20
71970;BME280;59838;52.152;5.436;2024-03-02T09:06:52;100184.97;;;9.25;87.28
71970;BME280;59838;52.152;5.436;2024-03-02T09:09:19;100187.06;;;9.37;88.57
71970;BME280;59838;52.152;5.436;2024-03-02T09:11:46;100179.50;;;9.42;86.12
71970;BME280;59838;52.152;5.436;2024-03-02T09:14:13;100185.22;;;9.30;85.74
71970;BME280;59838;52.152;5.436;2024-03-02T09:16:42;100184.03;;;9.33;86.86
71970;BME280;59838;52.152;5.436;2024-03-02T09:19:08;100175.66;;;9.38;85.21
71970;BME280;59838;52.152;5.436;2024-03-02T09:21:36;100176.13;;;9.41;85.84
71970;BME280;59838;52.152;5.436;2024-03-02T09:24:02;100180.47;;;9.41;85.23
71970;BME280;59838;52.152;5.436;2024-03-02T09:26:30;100184.13;;;9.46;83.60
71970;BME280;59838;52.152;5.436;2024-03-02T09:28:56;100185.66;;;9.41;83.62
71970;BME280;59838;52.152;5.436;2024-03-02T09:31:23;100185.31;;;9.50;83.27
71970;BME280;59838;52.152;5.436;2024-03-02T09:33:49;100185.88;;;9.46;81.00
71970;BME280;59838;52.152;5.436;2024-03-02T09:36:17;100192.09;;;9.45;81.29
71970;BME280;59838;52.152;5.436;2024-03-02T09:38:44;100188.19;;;9.62;83.14
71970;BME280;59838;52.152;5.436;2024-03-02T09:41:12;100192.84;;;9.74;83.37
71970;BME280;59838;52.152;5.436;2024-03-02T09:43:38;100188.81;;;9.71;80.90
71970;BME280;59838;52.152;5.436;2024-03-02T09:46:06;100197.94;;;9.60;80.33
71970;BME280;59838;52.152;5.436;2024-03-02T09:48:32;100201.13;;;9.56;79.82
71970;BME280;59838;52.152;5.436;2024-03-02T09:51:00;100193.75;;;9.59;79.71
71970;BME280;59838;52.152;5.436;2024-03-02T09:53:31;100194.75;;;9.58;77.89
71970;BME280;59838;52.152;5.436;2024-03-02T09:56:01;100192.16;;;9.58;77.22
71970;BME280;59838;52.152;5.436;2024-03-02T09:58:28;100192.56;;;9.62;78.78
71970;BME280;59838;52.152;5.436;2024-03-02T10:00:55;100188.06;;;9.77;79.60
71970;BME280;59838;52.152;5.436;2024-03-02T10:03:23;100195.06;;;9.83;79.64
71970;BME280;59838;52.152;5.436;2024-03-02T10:05:51;100199.06;;;9.86;78.55
71970;BME280;59838;52.152;5.436;2024-03-02T10:08:18;100192.47;;;9.83;75.69
71970;BME280;59838;52.152;5.436;2024-03-02T10:10:44;100186.28;;;9.84;77.47
71970;BME280;59838;52.152;5.436;2024-03-02T10:13:12;100191.91;;;9.88;77.26
71970;BME280;59838;52.152;5.436;2024-03-02T10:15:40;100197.53;;;9.98;77.80
71970;BME280;59838;52.152;5.436;2024-03-02T10:18:09;100201.09;;;9.97;75.67
71970;BME280;59838;52.152;5.436;2024-03-02T10:20:37;100197.53;;;9.98;74.75
71970;BME280;59838;52.152;5.436;2024-03-02T10:23:14;100193.53;;;10.02;77.20
71970;BME280;59838;52.152;5.436;2024-03-02T10:25:41;100187.56;;;10.09;77.56
71970;BME280;59838;52.152;5.436;2024-03-02T10:28:22;100188.81;;;10.19;77.59
71970;BME280;59838;52.152;5.436;2024-03-02T10:30:49;100201.78;;;10.19;76.37
71970;BME280;59838;52.152;5.436;2024-03-02T10:33:17;100190.03;;;10.30;76.50
71970;BME280;59838;52.152;5.436;2024-03-02T10:35:44;100187.28;;;10.38;75.35
71970;BME280;59838;52.152;5.436;2024-03-02T10:38:11;100181.09;;;10.39;76.68
71970;BME280;59838;52.152;5.436;2024-03-02T10:40:38;100182.72;;;10.47;75.78
71970;BME280;59838;52.152;5.436;2024-03-02T10:43:04;100180.13;;;10.60;76.76
71970;BME280;59838;52.152;5.436;2024-03-02T10:45:32;100175.31;;;10.64;76.22
71970;BME280;59838;52.152;5.436;2024-03-02T10:48:01;100167.16;;;10.74;74.85
71970;BME280;59838;52.152;5.436;2024-03-02T10:50:28;100161.75;;;10.69;74.47
71970;BME280;59838;52.152;5.436;2024-03-02T10:52:55;100160.94;;;10.75;73.12
71970;BME280;59838;52.152;5.436;2024-03-02T10:55:21;100162.75;;;10.88;72.66
71970;BME280;59838;52.152;5.436;2024-03-02T10:57:51;100150.56;;;10.95;71.13
71970;BME280;59838;52.152;5.436;2024-03-02T11:00:18;100149.94;;;11.06;70.55
71970;BME280;59838;52.152;5.436;2024-03-02T11:02:52;100147.53;;;11.11;70.21
71970;BME280;59838;52.152;5.436;2024-03-02T11:05:33;100151.72;;;11.12;71.67
71970;BME280;59838;52.152;5.436;2024-03-02T11:08:06;100147.31;;;11.20;72.16
71970;BME280;59838;52.152;5.436;2024-03-02T11:10:41;100152.34;;;11.14;69.97
71970;BME280;59838;52.152;5.436;2024-03-02T11:13:14;100157.91;;;11.25;69.59
71970;BME280;59838;52.152;5.436;2024-03-02T11:15:43;100156.09;;;11.39;70.61
71970;BME280;59838;52.152;5.436;2024-03-02T11:18:10;100151.44;;;11.47;69.30
71970;BME280;59838;52.152;5.436;2024-03-02T11:20:39;100148.03;;;11.53;68.76
71970;BME280;59838;52.152;5.436;2024-03-02T11:23:07;100151.19;;;11.62;70.90
71970;BME280;59838;52.152;5.436;2024-03-02T11:25:34;100157.38;;;11.68;68.67
71970;BME280;59838;52.152;5.436;2024-03-02T11:28:05;100158.19;;;11.68;68.25
71970;BME280;59838;52.152;5.436;2024-03-02T11:33:02;100155.47;;;11.88;68.56
71970;BME280;59838;52.152;5.436;2024-03-02T11:35:41;100156.72;;;11.93;66.70
71970;BME280;59838;52.152;5.436;2024-03-02T11:38:18;100152.06;;;12.01;66.37
71970;BME280;59838;52.152;5.436;2024-03-02T11:40:45;100144.19;;;12.08;65.81
71970;BME280;59838;52.152;5.436;2024-03-02T11:43:11;100145.97;;;12.14;66.77
71970;BME280;59838;52.152;5.436;2024-03-02T11:45:42;100135.50;;;12.21;67.12
71970;BME280;59838;52.152;5.436;2024-03-02T11:48:13;100128.06;;;12.31;64.62
71970;BME280;59838;52.152;5.436;2024-03-02T11:50:49;100131.97;;;12.40;64.69
71970;BME280;59838;52.152;5.436;2024-03-02T11:53:16;100128.78;;;12.38;61.79
71970;BME280;59838;52.152;5.436;2024-03-02T11:55:44;100116.41;;;12.34;61.39
71970;BME280;59838;52.152;5.436;2024-03-02T11:58:14;100124.00;;;12.35;61.24
71970;BME280;59838;52.152;5.436;2024-03-02T12:00:41;100123.16;;;12.41;61.53
71970;BME280;59838;52.152;5.436;2024-03-02T12:03:09;100123.09;;;12.48;62.22
71970;BME280;59838;52.152;5.436;2024-03-02T12:05:36;100129.50;;;12.52;62.81
71970;BME280;59838;52.152;5.436;2024-03-02T12:08:04;100122.63;;;12.58;62.38
71970;BME280;59838;52.152;5.436;2024-03-02T12:10:31;100107.34;;;12.61;63.02
71970;BME280;59838;52.152;5.436;2024-03-02T12:13:03;100110.56;;;12.64;62.42
71970;BME280;59838;52.152;5.436;2024-03-02T12:15:34;100104.19;;;12.59;60.89
71970;BME280;59838;52.152;5.436;2024-03-02T12:18:01;100101.47;;;12.48;61.42
71970;BME280;59838;52.152;5.436;2024-03-02T12:20:29;100094.59;;;12.53;61.25
71970;BME280;59838;52.152;5.436;2024-03-02T12:22:58;100092.69;;;12.67;63.81
71970;BME280;59838;52.152;5.436;2024-03-02T12:25:26;100101.56;;;12.85;63.85
71970;BME280;59838;52.152;5.436;2024-03-02T12:27:58;100102.13;;;12.87;62.00
71970;BME280;59838;52.152;5.436;2024-03-02T12:30:29;100100.81;;;12.77;59.90
71970;BME280;59838;52.152;5.436;2024-03-02T12:32:56;100092.78;;;12.79;60.71
71970;BME280;59838;52.152;5.436;2024-03-02T12:35:24;100087.41;;;12.74;59.71
71970;BME280;59838;52.152;5.436;2024-03-02T12:37:52;100094.34;;;12.61;60.59
71970;BME280;59838;52.152;5.436;2024-03-02T12:40:20;100090.66;;;12.69;61.48
71970;BME280;59838;52.152;5.436;2024-03-02T12:42:50;100096.25;;;12.73;62.10
71970;BME280;59838;52.152;5.436;2024-03-02T12:45:17;100090.09;;;12.67;61.29
71970;BME280;59838;52.152;5.436;2024-03-02T12:47:51;100083.59;;;12.51;60.38
71970;BME280;59838;52.152;5.436;2024-03-02T12:50:18;100073.13;;;12.58;62.31
71970;BME280;59838;52.152;5.436;2024-03-02T12:52:52;100075.56;;;12.53;61.83
71970;BME280;59838;52.152;5.436;2024-03-02T12:55:20;100070.00;;;12.49;62.22
71970;BME280;59838;52.152;5.436;2024-03-02T12:57:50;100058.19;;;12.47;61.71
71970;BME280;59838;52.152;5.436;2024-03-02T13:00:18;100054.47;;;12.36;61.76
71970;BME280;59838;52.152;5.436;2024-03-02T13:02:46;100061.28;;;12.37;61.89